createdAt,value
2018-12-12T00:01:22.736Z,3.90
2018-12-12T00:03:50.941Z,4.00
2018-12-12T00:06:19.273Z,3.90
2018-12-12T00:08:47.520Z,4.00
2018-12-12T00:11:15.792Z,4.10
2018-12-12T00:13:44.050Z,4.00
2018-12-12T00:16:12.366Z,4.00
2018-12-12T00:18:40.622Z,4.20
2018-12-12T00:21:08.918Z,4.20
2018-12-12T00:23:38.259Z,4.30
2018-12-12T00:26:06.855Z,4.30
2018-12-12T00:28:36.068Z,4.30
2018-12-12T00:31:04.537Z,4.40
2018-12-12T00:33:32.805Z,4.40
2018-12-12T00:36:01.049Z,4.30
2018-12-12T00:38:30.884Z,4.30
2018-12-12T00:40:59.141Z,4.40
2018-12-12T00:43:27.462Z,4.30
2018-12-12T00:45:55.730Z,4.30
2018-12-12T00:48:24.916Z,4.20
2018-12-12T00:50:53.145Z,4.30
2018-12-12T00:53:21.392Z,4.20
2018-12-12T00:55:49.634Z,4.20
2018-12-12T00:58:18.382Z,4.00
2018-12-12T01:00:46.660Z,4.10
2018-12-12T01:03:14.937Z,4.20
2018-12-12T01:05:43.164Z,4.30
2018-12-12T01:08:12.688Z,4.20
2018-12-12T01:10:40.946Z,4.20
2018-12-12T01:13:09.180Z,4.20
2018-12-12T01:15:37.446Z,4.00
2018-12-12T01:18:08.154Z,4.00
2018-12-12T01:20:36.451Z,3.90
2018-12-12T01:23:04.684Z,4.00
2018-12-12T01:25:32.924Z,4.20
2018-12-12T01:28:01.292Z,4.20
2018-12-12T01:30:29.496Z,4.00
2018-12-12T01:32:57.872Z,4.10
2018-12-12T01:35:26.253Z,4.20
2018-12-12T01:37:54.885Z,4.20
2018-12-12T01:40:23.144Z,4.30
2018-12-12T01:42:51.539Z,4.30
2018-12-12T01:45:19.777Z,4.30
2018-12-12T01:47:49.175Z,4.50
2018-12-12T01:50:17.390Z,4.40
2018-12-12T01:52:45.608Z,4.40
2018-12-12T01:55:13.841Z,4.20
2018-12-12T01:57:42.081Z,4.30
2018-12-12T02:00:11.151Z,4.10
2018-12-12T02:02:39.393Z,4.20
2018-12-12T02:05:07.900Z,4.20
2018-12-12T02:07:36.189Z,4.20
2018-12-12T02:10:05.987Z,4.30
2018-12-12T02:12:34.302Z,4.30
2018-12-12T02:15:02.542Z,4.10
2018-12-12T02:17:30.761Z,4.20
2018-12-12T02:19:59.028Z,4.30
2018-12-12T02:22:28.710Z,4.30
2018-12-12T02:24:56.971Z,4.40
2018-12-12T02:27:25.193Z,4.60
2018-12-12T02:29:53.601Z,4.60
2018-12-12T02:32:21.856Z,4.40
2018-12-12T02:34:50.085Z,4.40
2018-12-12T02:37:18.289Z,4.50
2018-12-12T02:39:46.541Z,4.50
2018-12-12T02:42:14.846Z,4.60
2018-12-12T02:44:43.088Z,4.50
2018-12-12T02:47:11.390Z,4.50
2018-12-12T02:49:39.718Z,4.50
2018-12-12T02:52:08.006Z,4.50
2018-12-12T02:54:36.246Z,4.60
2018-12-12T02:57:04.477Z,4.50
2018-12-12T02:59:32.700Z,4.50
2018-12-12T03:02:00.952Z,4.50
2018-12-12T03:04:29.197Z,4.50
2018-12-12T03:06:57.417Z,4.60
2018-12-12T03:09:25.644Z,4.80
2018-12-12T03:11:53.877Z,4.90
2018-12-12T03:14:22.205Z,4.70
2018-12-12T03:16:50.434Z,4.80
2018-12-12T03:19:18.677Z,4.70
2018-12-12T03:21:46.929Z,4.90
2018-12-12T03:24:15.166Z,4.90
2018-12-12T03:26:43.481Z,4.90
2018-12-12T03:29:11.761Z,4.80
2018-12-12T03:31:40.070Z,4.70
2018-12-12T03:34:08.368Z,4.70
2018-12-12T03:36:36.639Z,4.70
2018-12-12T03:39:06.904Z,4.70
2018-12-12T03:41:35.152Z,4.70
2018-12-12T03:44:03.396Z,4.80
2018-12-12T03:46:31.625Z,4.80
2018-12-12T03:48:59.911Z,4.90
2018-12-12T03:51:28.145Z,4.80
2018-12-12T03:53:56.380Z,4.80
2018-12-12T03:56:24.602Z,4.70
2018-12-12T03:58:52.875Z,4.70
2018-12-12T04:01:21.217Z,4.80
2018-12-12T04:03:49.483Z,4.80
2018-12-12T04:06:17.713Z,4.90
2018-12-12T04:08:46.259Z,4.60
2018-12-12T04:11:14.507Z,4.50
2018-12-12T04:13:42.716Z,4.70
2018-12-12T04:16:11.189Z,4.60
2018-12-12T04:18:39.398Z,4.50
2018-12-12T04:21:08.714Z,4.40
2018-12-12T04:23:37.006Z,4.60
2018-12-12T04:26:05.242Z,4.70
2018-12-12T04:28:33.517Z,4.70
2018-12-12T04:31:01.912Z,4.70
2018-12-12T04:33:30.312Z,4.70
2018-12-12T04:35:58.547Z,4.70
2018-12-12T04:38:26.781Z,4.80
2018-12-12T04:40:54.985Z,4.90
2018-12-12T04:43:23.262Z,4.80
2018-12-12T04:45:51.578Z,4.80
2018-12-12T04:48:19.767Z,4.80
2018-12-12T04:50:48.079Z,4.80
2018-12-12T04:53:16.439Z,4.80
2018-12-12T04:55:44.681Z,5.00
2018-12-12T04:58:12.908Z,5.10
2018-12-12T05:00:41.161Z,5.10
2018-12-12T05:03:09.399Z,5.20
2018-12-12T05:05:37.642Z,5.10
2018-12-12T05:08:05.937Z,5.00
2018-12-12T05:10:34.185Z,4.90
2018-12-12T05:13:03.510Z,4.90
2018-12-12T05:15:32.128Z,5.00
2018-12-12T05:18:00.362Z,5.10
2018-12-12T05:20:28.785Z,5.20
2018-12-12T05:22:56.990Z,5.20
2018-12-12T05:25:25.728Z,5.30
2018-12-12T05:27:53.933Z,5.40
2018-12-12T05:30:22.207Z,5.40
2018-12-12T05:32:50.473Z,5.00
2018-12-12T05:35:18.749Z,4.90
2018-12-12T05:37:51.900Z,4.80
2018-12-12T05:40:17.529Z,4.50
2018-12-12T05:42:45.984Z,4.60
2018-12-12T05:45:14.315Z,4.70
2018-12-12T05:47:42.569Z,4.50
2018-12-12T05:50:10.818Z,4.40
2018-12-12T05:52:39.034Z,4.50
2018-12-12T05:55:07.353Z,4.50
2018-12-12T05:57:35.572Z,4.50
2018-12-12T06:00:04.488Z,4.50
2018-12-12T06:02:32.748Z,4.40
2018-12-12T06:05:01.015Z,4.20
2018-12-12T06:07:29.251Z,4.20
2018-12-12T06:09:57.470Z,4.20
2018-12-12T06:12:25.777Z,4.30
2018-12-12T06:14:54.043Z,4.50
2018-12-12T06:17:22.337Z,4.40
2018-12-12T06:19:50.847Z,4.60
2018-12-12T06:22:19.413Z,4.40
2018-12-12T06:24:47.637Z,4.30
2018-12-12T06:27:15.845Z,4.20
2018-12-12T06:29:44.100Z,4.20
2018-12-12T06:32:12.353Z,4.30
2018-12-12T06:34:41.212Z,4.40
2018-12-12T06:37:09.677Z,4.50
2018-12-12T06:39:37.898Z,4.60
2018-12-12T06:42:06.230Z,4.50
2018-12-12T06:44:34.494Z,4.50
2018-12-12T06:47:02.780Z,4.30
2018-12-12T06:49:31.024Z,4.50
2018-12-12T06:51:59.312Z,4.70
2018-12-12T06:54:27.574Z,4.80
2018-12-12T06:56:55.817Z,4.70
2018-12-12T06:59:24.062Z,4.80
2018-12-12T07:01:52.405Z,4.90
2018-12-12T07:04:20.653Z,4.60
2018-12-12T07:06:48.868Z,4.70
2018-12-12T07:09:17.166Z,4.70
2018-12-12T07:11:45.742Z,4.70
2018-12-12T07:14:14.008Z,4.40
2018-12-12T07:16:42.507Z,4.40
2018-12-12T07:19:10.820Z,4.30
2018-12-12T07:21:39.088Z,4.20
2018-12-12T07:24:07.408Z,4.40
2018-12-12T07:26:35.663Z,4.30
2018-12-12T07:29:04.004Z,4.30
2018-12-12T07:31:32.301Z,4.40
2018-12-12T07:34:01.362Z,4.40
2018-12-12T07:36:29.805Z,4.40
2018-12-12T07:38:58.050Z,4.30
2018-12-12T07:41:26.463Z,4.30
2018-12-12T07:43:54.677Z,4.30
2018-12-12T07:46:23.015Z,4.30
2018-12-12T07:48:51.665Z,4.40
2018-12-12T07:51:20.313Z,4.30
2018-12-12T07:53:48.734Z,4.30
2018-12-12T07:56:18.474Z,4.30
2018-12-12T07:58:46.826Z,4.40
2018-12-12T08:01:15.680Z,4.40
2018-12-12T08:03:44.229Z,4.50
2018-12-12T08:06:12.672Z,4.50
2018-12-12T08:08:40.894Z,4.60
2018-12-12T08:11:09.258Z,4.60
2018-12-12T08:13:37.512Z,4.70
2018-12-12T08:16:05.967Z,4.70
2018-12-12T08:18:34.201Z,4.70
2018-12-12T08:21:02.450Z,4.80
2018-12-12T08:23:31.092Z,4.70
2018-12-12T08:25:59.430Z,4.60
2018-12-12T08:28:27.707Z,4.60
2018-12-12T08:30:55.956Z,4.90
2018-12-12T08:33:24.207Z,4.80
2018-12-12T08:35:52.434Z,4.90
2018-12-12T08:38:20.737Z,5.00
2018-12-12T08:40:48.991Z,5.10
2018-12-12T08:43:17.249Z,5.10
2018-12-12T08:45:45.507Z,5.00
2018-12-12T08:48:13.783Z,5.10
2018-12-12T08:50:42.042Z,5.30
2018-12-12T08:53:10.304Z,5.20
2018-12-12T08:55:38.559Z,5.10
2018-12-12T08:58:06.787Z,5.10
2018-12-12T09:00:35.061Z,5.10
2018-12-12T09:03:03.488Z,5.10
2018-12-12T09:05:31.937Z,5.10
2018-12-12T09:08:00.170Z,5.40
2018-12-12T09:10:28.499Z,5.20
2018-12-12T09:12:56.769Z,5.40
2018-12-12T09:15:25.087Z,5.30
2018-12-12T09:17:53.336Z,5.20
2018-12-12T09:20:21.628Z,5.10
2018-12-12T09:22:49.979Z,5.30
2018-12-12T09:25:18.237Z,5.20
2018-12-12T09:27:46.503Z,5.50
2018-12-12T09:30:14.784Z,5.30
2018-12-12T09:32:43.045Z,5.50
2018-12-12T09:35:11.385Z,5.40
2018-12-12T09:37:39.643Z,5.40
2018-12-12T09:40:07.967Z,5.40
2018-12-12T09:42:36.197Z,5.70
2018-12-12T09:45:05.052Z,5.70
2018-12-12T09:47:33.728Z,5.50
2018-12-12T09:50:02.092Z,5.70
2018-12-12T09:52:30.410Z,5.90
2018-12-12T09:54:58.662Z,5.80
2018-12-12T09:57:26.914Z,5.70
2018-12-12T09:59:55.161Z,5.60
2018-12-12T10:02:23.384Z,6.20
2018-12-12T10:04:51.648Z,6.30
2018-12-12T10:07:19.895Z,6.10
2018-12-12T10:09:48.133Z,6.30
2018-12-12T10:12:16.368Z,6.10
2018-12-12T10:14:44.569Z,6.10
2018-12-12T10:17:12.785Z,6.20
2018-12-12T10:19:41.020Z,6.30
2018-12-12T10:22:09.422Z,6.20
2018-12-12T10:24:37.854Z,6.20
2018-12-12T10:27:06.075Z,6.20
2018-12-12T10:29:42.503Z,6.20
2018-12-12T10:32:10.726Z,6.20
2018-12-12T10:34:39.076Z,6.20
2018-12-12T10:37:07.338Z,6.50
2018-12-12T10:39:35.606Z,6.30
2018-12-12T10:42:04.082Z,6.50
2018-12-12T10:44:33.407Z,6.90
2018-12-12T10:47:01.920Z,6.90
2018-12-12T10:49:30.173Z,7.00
2018-12-12T10:51:58.414Z,7.10
2018-12-12T10:54:26.782Z,7.00
2018-12-12T10:56:55.045Z,7.10
2018-12-12T10:59:23.272Z,7.20
2018-12-12T11:01:55.833Z,7.10
2018-12-12T11:04:24.141Z,7.20
2018-12-12T11:06:52.881Z,7.20
2018-12-12T11:09:21.231Z,7.30
2018-12-12T11:11:49.455Z,7.10
2018-12-12T11:14:17.819Z,7.10
2018-12-12T11:16:46.143Z,7.40
2018-12-12T11:19:19.988Z,7.40
2018-12-12T11:21:49.419Z,7.30
2018-12-12T11:24:19.635Z,7.30
2018-12-12T11:26:50.694Z,7.50
2018-12-12T11:29:21.894Z,7.30
2018-12-12T11:31:52.027Z,7.10
2018-12-12T11:34:20.802Z,7.40
2018-12-12T11:36:50.399Z,7.30
2018-12-12T11:39:19.342Z,7.40
2018-12-12T11:41:52.673Z,7.60
2018-12-12T11:44:21.318Z,7.20
2018-12-12T11:46:51.214Z,7.50
2018-12-12T11:49:20.511Z,7.60
2018-12-12T11:51:52.109Z,7.70
2018-12-12T11:54:24.857Z,7.60
2018-12-12T11:56:53.736Z,7.50
2018-12-12T11:59:24.517Z,7.60
2018-12-12T12:01:53.284Z,7.50
2018-12-12T12:04:21.728Z,7.50
2018-12-12T12:06:50.480Z,7.60
2018-12-12T12:09:19.753Z,7.60
2018-12-12T12:11:48.739Z,7.50
2018-12-12T12:14:19.562Z,7.50
2018-12-12T12:16:47.893Z,7.80
2018-12-12T12:19:17.549Z,7.70
2018-12-12T12:21:46.963Z,7.80
2018-12-12T12:24:20.678Z,7.80
2018-12-12T12:26:53.419Z,7.50
2018-12-12T12:29:24.437Z,7.50
2018-12-12T12:31:56.942Z,7.90
2018-12-12T12:34:29.576Z,8.10
2018-12-12T12:37:02.495Z,7.50
2018-12-12T12:39:32.821Z,7.70
2018-12-12T12:42:02.534Z,7.80
2018-12-12T12:44:34.200Z,7.50
2018-12-12T12:47:04.958Z,7.60
2018-12-12T12:49:34.384Z,7.60
2018-12-12T12:52:04.310Z,7.80
2018-12-12T12:54:32.991Z,7.80
2018-12-12T12:57:04.094Z,7.90
2018-12-12T12:59:35.354Z,7.70
2018-12-12T13:02:05.561Z,7.60
2018-12-12T13:04:34.332Z,7.60
2018-12-12T13:07:02.794Z,7.50
2018-12-12T13:09:31.259Z,7.60
2018-12-12T13:11:59.769Z,7.40
2018-12-12T13:14:28.280Z,7.40
2018-12-12T13:16:56.548Z,7.60
2018-12-12T13:19:24.876Z,7.50
2018-12-12T13:21:53.159Z,7.50
2018-12-12T13:24:21.502Z,7.50
2018-12-12T13:26:53.300Z,7.40
2018-12-12T13:29:20.065Z,7.50
2018-12-12T13:31:48.408Z,7.40
2018-12-12T13:34:16.682Z,7.40
2018-12-12T13:36:45.084Z,7.40
2018-12-12T13:39:13.368Z,7.40
2018-12-12T13:41:41.624Z,7.50
2018-12-12T13:44:10.208Z,8.00
2018-12-12T13:46:38.483Z,8.40
2018-12-12T13:49:06.734Z,8.80
2018-12-12T13:51:34.993Z,8.70
2018-12-12T13:54:03.324Z,8.50
2018-12-12T13:59:26.834Z,8.00
2018-12-12T14:01:57.122Z,7.70
2018-12-12T14:04:25.745Z,7.70
2018-12-12T14:06:54.693Z,7.70
2018-12-12T14:09:24.177Z,7.70
2018-12-12T14:11:54.135Z,7.60
2018-12-12T14:14:22.998Z,7.50
2018-12-12T14:16:53.483Z,7.30
2018-12-12T14:19:27.137Z,7.40
2018-12-12T15:56:51.858Z,5.60
2018-12-12T15:59:20.786Z,5.40
2018-12-12T16:01:49.532Z,5.20
2018-12-12T16:04:18.064Z,5.20
2018-12-12T16:06:46.603Z,5.10
2018-12-12T16:34:28.253Z,4.70
2018-12-12T16:36:56.957Z,4.50
2018-12-12T16:39:29.402Z,4.50
2018-12-12T16:41:58.113Z,4.50
2018-12-12T16:44:26.966Z,4.40
2018-12-12T16:46:55.921Z,4.50
2018-12-12T16:49:31.473Z,4.40
2018-12-12T16:52:02.780Z,4.40
2018-12-12T16:57:41.655Z,4.30
2018-12-12T17:00:11.283Z,4.30
2018-12-12T17:05:46.425Z,4.20
2018-12-12T17:08:20.150Z,4.30
2018-12-12T17:10:49.172Z,4.30
2018-12-12T17:13:18.447Z,4.30
2018-12-12T17:15:47.143Z,4.50
2018-12-12T17:18:21.187Z,4.40
2018-12-12T17:20:49.691Z,4.40
2018-12-12T17:23:33.405Z,4.40
2018-12-12T17:26:08.500Z,4.40
2018-12-12T17:28:37.793Z,4.30
2018-12-12T17:31:07.006Z,4.30
2018-12-12T17:33:36.420Z,4.20
2018-12-12T17:36:05.035Z,4.20
2018-12-12T17:38:33.808Z,4.10
2018-12-12T17:41:03.992Z,4.20
2018-12-12T17:43:33.242Z,4.10
2018-12-12T17:46:09.090Z,4.20
2018-12-12T17:48:37.858Z,4.20
2018-12-12T17:51:06.874Z,4.10
2018-12-12T17:53:40.807Z,4.20
2018-12-12T17:56:25.896Z,4.20
2018-12-12T17:59:02.024Z,4.00
2018-12-12T18:02:00.413Z,4.00
2018-12-12T18:04:29.308Z,3.90
2018-12-12T18:07:01.661Z,3.90
2018-12-12T18:09:33.284Z,3.80
2018-12-12T18:12:11.377Z,3.80
2018-12-12T18:15:02.626Z,3.70
2018-12-12T18:17:45.547Z,3.80
2018-12-12T18:20:16.016Z,3.90
2018-12-12T18:22:55.026Z,3.80
2018-12-12T18:25:37.724Z,3.70
2018-12-12T18:28:19.211Z,3.70
2018-12-12T18:30:48.694Z,3.80
2018-12-12T18:33:17.510Z,3.60
2018-12-12T18:35:46.539Z,3.60
2018-12-12T18:38:15.231Z,3.60
2018-12-12T18:40:50.525Z,3.70
2018-12-12T18:43:25.395Z,3.80
2018-12-12T18:45:54.252Z,3.70
2018-12-12T18:48:23.476Z,3.70
2018-12-12T18:50:52.307Z,3.70
2018-12-12T18:53:21.012Z,3.60
2018-12-12T18:55:49.905Z,3.70
2018-12-12T18:58:18.304Z,3.60
2018-12-12T19:00:47.501Z,3.70
2018-12-12T19:03:16.481Z,3.70
2018-12-12T19:05:59.642Z,3.60
2018-12-12T19:08:46.359Z,3.70
2018-12-12T19:11:15.532Z,3.80
2018-12-12T19:16:34.625Z,4.10
2018-12-12T19:19:03.078Z,4.20
2018-12-12T19:21:32.207Z,4.30
2018-12-12T19:24:00.593Z,4.40
2018-12-12T19:26:28.896Z,4.50
2018-12-12T19:28:57.212Z,4.60
2018-12-12T19:31:25.536Z,4.60
2018-12-12T19:33:53.819Z,4.70
2018-12-12T19:36:22.319Z,4.70
2018-12-12T19:38:51.025Z,4.70
2018-12-12T19:41:19.655Z,4.80
2018-12-12T19:43:48.188Z,4.90
2018-12-12T19:46:16.523Z,4.90
2018-12-12T19:48:45.070Z,4.80
2018-12-12T19:51:13.612Z,4.90
2018-12-12T19:53:42.416Z,5.00
2018-12-12T19:56:11.169Z,5.00
2018-12-12T19:58:39.817Z,5.00
2018-12-12T20:01:08.673Z,5.00
2018-12-12T20:03:37.556Z,5.00
2018-12-12T20:06:06.773Z,4.80
2018-12-12T20:08:35.705Z,5.00
2018-12-12T20:11:04.202Z,4.80
2018-12-12T20:13:32.867Z,4.90
2018-12-12T20:16:01.524Z,4.90
2018-12-12T20:18:30.006Z,4.70
2018-12-12T20:20:58.879Z,4.90
2018-12-12T20:23:27.352Z,5.00
2018-12-12T20:25:56.117Z,5.10
2018-12-12T20:28:24.883Z,5.10
2018-12-12T20:30:54.381Z,5.10
2018-12-12T20:33:23.283Z,5.10
2018-12-12T20:35:51.648Z,5.10
2018-12-12T20:38:20.291Z,5.10
2018-12-12T20:40:49.312Z,5.20
2018-12-12T20:43:17.762Z,5.20
2018-12-12T20:45:46.624Z,5.20
2018-12-12T20:48:18.137Z,5.00
2018-12-12T20:50:46.771Z,4.90
2018-12-12T20:53:15.388Z,4.80
2018-12-12T20:55:44.108Z,4.80
2018-12-12T20:58:13.769Z,4.80
2018-12-12T21:00:42.514Z,5.00
2018-12-12T21:03:11.321Z,4.90
2018-12-12T21:05:40.231Z,4.90
2018-12-12T21:08:08.951Z,5.00
2018-12-12T21:10:38.427Z,4.70
2018-12-12T21:13:06.784Z,4.80
2018-12-12T21:15:35.385Z,4.90
2018-12-12T21:18:03.964Z,5.00
2018-12-12T21:20:32.437Z,5.00
2018-12-12T21:23:00.733Z,5.10
2018-12-12T21:25:31.403Z,5.10
2018-12-12T21:27:59.801Z,5.20
2018-12-12T21:30:28.458Z,5.20
2018-12-12T21:32:56.969Z,5.00
2018-12-12T21:35:25.454Z,5.00
2018-12-12T21:37:54.047Z,5.10
2018-12-12T21:40:23.790Z,5.20
2018-12-12T21:42:52.899Z,5.20
2018-12-12T21:45:30.376Z,5.20
2018-12-12T21:47:59.049Z,4.80
2018-12-12T21:50:28.259Z,4.90
2018-12-12T21:52:56.999Z,5.10
2018-12-12T21:55:27.405Z,5.20
2018-12-12T21:57:58.122Z,5.10
2018-12-12T22:00:30.293Z,4.70
2018-12-12T22:03:07.222Z,4.10
2018-12-12T22:05:37.501Z,3.80
2018-12-12T22:08:06.311Z,3.40
2018-12-12T22:32:06.964Z,3.00
2018-12-12T22:40:55.893Z,2.90
2018-12-12T22:43:26.295Z,2.90
2018-12-12T22:45:57.082Z,3.00
2018-12-12T22:48:26.571Z,3.00
2018-12-12T22:50:56.853Z,3.00
2018-12-12T22:53:28.303Z,3.00
2018-12-12T22:55:57.262Z,2.90
2018-12-12T22:58:26.300Z,2.80
2018-12-12T23:01:00.732Z,2.70
2018-12-12T23:03:32.711Z,2.50
2018-12-12T23:06:01.622Z,2.40
2018-12-12T23:08:30.191Z,2.30
2018-12-12T23:10:58.496Z,2.20
2018-12-12T23:13:27.063Z,2.10
2018-12-12T23:15:55.713Z,2.10
2018-12-12T23:18:24.505Z,2.00
2018-12-12T23:20:53.462Z,1.90
2018-12-12T23:23:22.164Z,1.90
2018-12-12T23:25:50.865Z,1.80
2018-12-12T23:28:21.407Z,1.70
2018-12-12T23:30:49.841Z,1.70
2018-12-12T23:33:18.126Z,1.70
2018-12-12T23:35:46.380Z,1.60
2018-12-12T23:38:14.885Z,1.50
2018-12-12T23:40:43.345Z,1.40
2018-12-12T23:43:11.782Z,1.50
2018-12-12T23:45:40.476Z,1.50
2018-12-12T23:48:09.028Z,1.50
2018-12-12T23:50:38.832Z,1.40
2018-12-12T23:53:09.147Z,1.40
2018-12-12T23:55:38.237Z,1.40
2018-12-12T23:58:07.255Z,1.40
